sensor_id;sensor_type;location;lat;lon;timestamp;P1;durP1;ratioP1;P2;durP2;ratioP2
25854;SDS011;13680;49.936;11.344;2022-08-21T00:00:38;11.60;;;7.32;;
25854;SDS011;13680;49.936;11.344;2022-08-21T00:03:05;9.95;;;8.30;;
25854;SDS011;13680;49.936;11.344;2022-08-21T00:05:33;9.38;;;7.50;;
25854;SDS011;13680;49.936;11.344;2022-08-21T00:08:03;8.75;;;7.50;;
25854;SDS011;13680;49.936;11.344;2022-08-21T00:10:28;10.43;;;7.13;;
25854;SDS011;13680;49.936;11.344;2022-08-21T00:12:54;9.20;;;6.97;;
25854;SDS011;13680;49.936;11.344;2022-08-21T00:15:21;13.10;;;8.02;;
25854;SDS011;13680;49.936;11.344;2022-08-21T00:17:51;10.27;;;6.70;;
25854;SDS011;13680;49.936;11.344;2022-08-21T00:20:16;9.85;;;6.90;;
25854;SDS011;13680;49.936;11.344;2022-08-21T00:22:43;8.15;;;7.32;;
25854;SDS011;13680;49.936;11.344;2022-08-21T00:25:09;8.57;;;6.90;;
25854;SDS011;13680;49.936;11.344;2022-08-21T00:27:35;9.38;;;7.75;;
25854;SDS011;13680;49.936;11.344;2022-08-21T00:30:00;9.23;;;7.57;;
25854;SDS011;13680;49.936;11.344;2022-08-21T00:32:26;9.43;;;7.40;;
25854;SDS011;13680;49.936;11.344;2022-08-21T00:34:52;13.15;;;8.57;;
25854;SDS011;13680;49.936;11.344;2022-08-21T00:37:19;12.85;;;9.32;;
25854;SDS011;13680;49.936;11.344;2022-08-21T00:39:45;10.32;;;7.63;;
25854;SDS011;13680;49.936;11.344;2022-08-21T00:42:12;11.30;;;7.57;;
25854;SDS011;13680;49.936;11.344;2022-08-21T00:44:42;9.25;;;7.43;;
25854;SDS011;13680;49.936;11.344;2022-08-21T00:47:09;11.75;;;7.68;;
25854;SDS011;13680;49.936;11.344;2022-08-21T00:49:34;8.07;;;6.50;;
25854;SDS011;13680;49.936;11.344;2022-08-21T00:52:00;8.02;;;6.57;;
25854;SDS011;13680;49.936;11.344;2022-08-21T00:54:27;9.82;;;6.88;;
25854;SDS011;13680;49.936;11.344;2022-08-21T00:56:56;13.60;;;7.50;;
25854;SDS011;13680;49.936;11.344;2022-08-21T00:59:25;10.27;;;7.82;;
25854;SDS011;13680;49.936;11.344;2022-08-21T01:01:52;9.35;;;7.57;;
25854;SDS011;13680;49.936;11.344;2022-08-21T01:04:18;11.23;;;8.75;;
25854;SDS011;13680;49.936;11.344;2022-08-21T01:06:45;17.70;;;8.00;;
25854;SDS011;13680;49.936;11.344;2022-08-21T01:09:11;10.20;;;6.60;;
25854;SDS011;13680;49.936;11.344;2022-08-21T01:11:38;7.85;;;6.53;;
25854;SDS011;13680;49.936;11.344;2022-08-21T01:14:04;9.52;;;7.40;;
25854;SDS011;13680;49.936;11.344;2022-08-21T01:16:30;10.32;;;6.90;;
25854;SDS011;13680;49.936;11.344;2022-08-21T01:18:56;14.88;;;7.38;;
25854;SDS011;13680;49.936;11.344;2022-08-21T01:21:23;8.73;;;6.70;;
25854;SDS011;13680;49.936;11.344;2022-08-21T01:23:51;8.23;;;6.93;;
25854;SDS011;13680;49.936;11.344;2022-08-21T01:26:20;10.13;;;6.72;;
25854;SDS011;13680;49.936;11.344;2022-08-21T01:28:54;14.02;;;7.72;;
25854;SDS011;13680;49.936;11.344;2022-08-21T01:31:26;21.10;;;8.05;;
25854;SDS011;13680;49.936;11.344;2022-08-21T01:33:52;39.38;;;8.23;;
25854;SDS011;13680;49.936;11.344;2022-08-21T01:36:19;43.65;;;7.25;;
25854;SDS011;13680;49.936;11.344;2022-08-21T01:38:45;22.27;;;6.70;;
25854;SDS011;13680;49.936;11.344;2022-08-21T01:41:12;22.60;;;7.45;;
25854;SDS011;13680;49.936;11.344;2022-08-21T01:43:38;69.25;;;8.38;;
25854;SDS011;13680;49.936;11.344;2022-08-21T01:46:03;82.38;;;8.38;;
25854;SDS011;13680;49.936;11.344;2022-08-21T01:48:29;87.70;;;8.65;;
25854;SDS011;13680;49.936;11.344;2022-08-21T01:50:54;77.60;;;8.68;;
25854;SDS011;13680;49.936;11.344;2022-08-21T01:53:20;90.45;;;9.32;;
25854;SDS011;13680;49.936;11.344;2022-08-21T01:55:46;31.88;;;6.15;;
25854;SDS011;13680;49.936;11.344;2022-08-21T01:58:11;44.85;;;7.45;;
25854;SDS011;13680;49.936;11.344;2022-08-21T02:00:37;27.40;;;7.95;;
25854;SDS011;13680;49.936;11.344;2022-08-21T02:03:02;37.90;;;8.73;;
25854;SDS011;13680;49.936;11.344;2022-08-21T02:05:28;13.32;;;6.25;;
25854;SDS011;13680;49.936;11.344;2022-08-21T02:07:55;19.38;;;7.53;;
25854;SDS011;13680;49.936;11.344;2022-08-21T02:10:23;17.05;;;7.32;;
25854;SDS011;13680;49.936;11.344;2022-08-21T02:12:51;13.00;;;7.13;;
25854;SDS011;13680;49.936;11.344;2022-08-21T02:15:17;21.23;;;6.82;;
25854;SDS011;13680;49.936;11.344;2022-08-21T02:17:51;11.50;;;6.25;;
25854;SDS011;13680;49.936;11.344;2022-08-21T02:20:23;21.83;;;6.43;;
25854;SDS011;13680;49.936;11.344;2022-08-21T02:22:56;13.20;;;6.10;;
25854;SDS011;13680;49.936;11.344;2022-08-21T02:25:23;10.10;;;6.35;;
25854;SDS011;13680;49.936;11.344;2022-08-21T02:27:49;9.68;;;6.63;;
25854;SDS011;13680;49.936;11.344;2022-08-21T02:30:16;10.73;;;6.03;;
25854;SDS011;13680;49.936;11.344;2022-08-21T02:32:44;9.10;;;6.85;;
25854;SDS011;13680;49.936;11.344;2022-08-21T02:35:10;11.13;;;5.72;;
25854;SDS011;13680;49.936;11.344;2022-08-21T02:37:50;8.52;;;6.10;;
25854;SDS011;13680;49.936;11.344;2022-08-21T02:40:19;9.10;;;6.75;;
25854;SDS011;13680;49.936;11.344;2022-08-21T02:42:46;8.30;;;5.97;;
25854;SDS011;13680;49.936;11.344;2022-08-21T02:45:12;8.02;;;6.80;;
25854;SDS011;13680;49.936;11.344;2022-08-21T02:47:38;7.70;;;6.15;;
25854;SDS011;13680;49.936;11.344;2022-08-21T02:50:05;6.97;;;5.70;;
25854;SDS011;13680;49.936;11.344;2022-08-21T02:52:31;7.10;;;5.95;;
25854;SDS011;13680;49.936;11.344;2022-08-21T02:54:58;6.57;;;5.85;;
25854;SDS011;13680;49.936;11.344;2022-08-21T02:57:24;6.72;;;5.90;;
25854;SDS011;13680;49.936;11.344;2022-08-21T02:59:49;6.22;;;5.25;;
25854;SDS011;13680;49.936;11.344;2022-08-21T03:02:15;6.30;;;4.93;;
25854;SDS011;13680;49.936;11.344;2022-08-21T03:04:40;5.90;;;5.18;;
25854;SDS011;13680;49.936;11.344;2022-08-21T03:07:06;6.57;;;5.15;;
25854;SDS011;13680;49.936;11.344;2022-08-21T03:09:31;9.15;;;5.13;;
25854;SDS011;13680;49.936;11.344;2022-08-21T03:11:56;6.90;;;5.88;;
25854;SDS011;13680;49.936;11.344;2022-08-21T03:14:22;7.03;;;5.88;;
25854;SDS011;13680;49.936;11.344;2022-08-21T03:16:48;17.38;;;6.38;;
25854;SDS011;13680;49.936;11.344;2022-08-21T03:19:13;12.50;;;6.63;;
25854;SDS011;13680;49.936;11.344;2022-08-21T03:21:38;11.43;;;6.25;;
25854;SDS011;13680;49.936;11.344;2022-08-21T03:24:04;10.10;;;6.60;;
25854;SDS011;13680;49.936;11.344;2022-08-21T03:26:29;22.63;;;6.80;;
25854;SDS011;13680;49.936;11.344;2022-08-21T03:28:55;22.83;;;7.15;;
25854;SDS011;13680;49.936;11.344;2022-08-21T03:31:22;25.92;;;7.93;;
25854;SDS011;13680;49.936;11.344;2022-08-21T03:33:48;55.88;;;8.10;;
25854;SDS011;13680;49.936;11.344;2022-08-21T03:36:13;17.15;;;7.68;;
25854;SDS011;13680;49.936;11.344;2022-08-21T03:38:39;20.48;;;8.73;;
25854;SDS011;13680;49.936;11.344;2022-08-21T03:41:05;52.53;;;8.23;;
25854;SDS011;13680;49.936;11.344;2022-08-21T03:43:32;60.08;;;6.43;;
25854;SDS011;13680;49.936;11.344;2022-08-21T03:45:58;56.03;;;7.65;;
25854;SDS011;13680;49.936;11.344;2022-08-21T03:48:25;57.55;;;7.15;;
25854;SDS011;13680;49.936;11.344;2022-08-21T03:50:51;43.08;;;7.68;;
25854;SDS011;13680;49.936;11.344;2022-08-21T03:53:17;30.50;;;6.53;;
25854;SDS011;13680;49.936;11.344;2022-08-21T03:55:46;42.38;;;6.88;;
25854;SDS011;13680;49.936;11.344;2022-08-21T03:58:15;22.23;;;6.25;;
25854;SDS011;13680;49.936;11.344;2022-08-21T04:00:42;42.88;;;5.97;;
25854;SDS011;13680;49.936;11.344;2022-08-21T04:03:08;70.25;;;6.78;;
25854;SDS011;13680;49.936;11.344;2022-08-21T04:05:33;32.30;;;5.35;;
25854;SDS011;13680;49.936;11.344;2022-08-21T04:08:03;46.72;;;6.40;;
25854;SDS011;13680;49.936;11.344;2022-08-21T04:10:30;64.13;;;6.03;;
25854;SDS011;13680;49.936;11.344;2022-08-21T04:12:57;72.75;;;6.20;;
25854;SDS011;13680;49.936;11.344;2022-08-21T04:15:24;96.22;;;6.38;;
25854;SDS011;13680;49.936;11.344;2022-08-21T04:17:50;64.60;;;5.95;;
25854;SDS011;13680;49.936;11.344;2022-08-21T04:20:16;69.18;;;6.63;;
25854;SDS011;13680;49.936;11.344;2022-08-21T04:22:43;60.28;;;7.18;;
25854;SDS011;13680;49.936;11.344;2022-08-21T04:25:09;88.07;;;7.40;;
25854;SDS011;13680;49.936;11.344;2022-08-21T04:27:36;61.88;;;6.78;;
25854;SDS011;13680;49.936;11.344;2022-08-21T04:30:01;39.25;;;6.72;;
25854;SDS011;13680;49.936;11.344;2022-08-21T04:32:28;17.58;;;6.43;;
25854;SDS011;13680;49.936;11.344;2022-08-21T04:35:04;44.78;;;7.35;;
25854;SDS011;13680;49.936;11.344;2022-08-21T04:37:33;79.45;;;7.43;;
25854;SDS011;13680;49.936;11.344;2022-08-21T04:39:58;74.45;;;7.85;;
25854;SDS011;13680;49.936;11.344;2022-08-21T04:42:25;32.35;;;6.63;;
25854;SDS011;13680;49.936;11.344;2022-08-21T04:44:52;49.13;;;7.93;;
25854;SDS011;13680;49.936;11.344;2022-08-21T04:47:18;105.80;;;9.75;;
25854;SDS011;13680;49.936;11.344;2022-08-21T04:49:44;23.15;;;7.72;;
25854;SDS011;13680;49.936;11.344;2022-08-21T04:52:10;39.28;;;9.13;;
25854;SDS011;13680;49.936;11.344;2022-08-21T04:54:38;20.45;;;8.48;;
25854;SDS011;13680;49.936;11.344;2022-08-21T04:57:06;37.38;;;8.27;;
25854;SDS011;13680;49.936;11.344;2022-08-21T04:59:38;24.20;;;8.73;;
25854;SDS011;13680;49.936;11.344;2022-08-21T05:02:10;44.83;;;8.18;;
25854;SDS011;13680;49.936;11.344;2022-08-21T05:04:39;51.42;;;8.50;;
25854;SDS011;13680;49.936;11.344;2022-08-21T05:07:10;71.90;;;9.75;;
25854;SDS011;13680;49.936;11.344;2022-08-21T05:09:40;16.10;;;8.52;;
25854;SDS011;13680;49.936;11.344;2022-08-21T05:12:06;25.38;;;8.00;;
25854;SDS011;13680;49.936;11.344;2022-08-21T05:14:32;30.98;;;8.60;;
25854;SDS011;13680;49.936;11.344;2022-08-21T05:16:58;36.28;;;8.93;;
25854;SDS011;13680;49.936;11.344;2022-08-21T05:19:24;15.63;;;8.00;;
25854;SDS011;13680;49.936;11.344;2022-08-21T05:21:50;32.65;;;8.60;;
25854;SDS011;13680;49.936;11.344;2022-08-21T05:24:15;18.75;;;7.65;;
25854;SDS011;13680;49.936;11.344;2022-08-21T05:26:41;23.20;;;7.72;;
25854;SDS011;13680;49.936;11.344;2022-08-21T05:29:07;13.60;;;7.00;;
25854;SDS011;13680;49.936;11.344;2022-08-21T05:31:32;34.97;;;8.35;;
25854;SDS011;13680;49.936;11.344;2022-08-21T05:33:58;27.48;;;6.93;;
25854;SDS011;13680;49.936;11.344;2022-08-21T05:36:23;14.70;;;7.75;;
25854;SDS011;13680;49.936;11.344;2022-08-21T05:38:49;17.05;;;7.38;;
25854;SDS011;13680;49.936;11.344;2022-08-21T05:41:15;20.60;;;7.10;;
25854;SDS011;13680;49.936;11.344;2022-08-21T05:43:41;19.50;;;7.25;;
25854;SDS011;13680;49.936;11.344;2022-08-21T05:46:06;28.48;;;7.15;;
25854;SDS011;13680;49.936;11.344;2022-08-21T05:48:33;26.02;;;7.15;;
25854;SDS011;13680;49.936;11.344;2022-08-21T05:51:03;27.85;;;7.40;;
25854;SDS011;13680;49.936;11.344;2022-08-21T05:53:33;41.47;;;7.05;;
25854;SDS011;13680;49.936;11.344;2022-08-21T05:56:00;33.85;;;8.07;;
25854;SDS011;13680;49.936;11.344;2022-08-21T05:58:28;30.55;;;8.52;;
25854;SDS011;13680;49.936;11.344;2022-08-21T06:00:53;65.65;;;8.32;;
25854;SDS011;13680;49.936;11.344;2022-08-21T06:03:21;48.83;;;9.00;;
25854;SDS011;13680;49.936;11.344;2022-08-21T06:05:49;25.10;;;9.48;;
25854;SDS011;13680;49.936;11.344;2022-08-21T06:08:15;42.85;;;9.63;;
25854;SDS011;13680;49.936;11.344;2022-08-21T06:10:42;97.57;;;11.25;;
25854;SDS011;13680;49.936;11.344;2022-08-21T06:13:08;28.42;;;10.10;;
25854;SDS011;13680;49.936;11.344;2022-08-21T06:15:34;15.95;;;7.93;;
25854;SDS011;13680;49.936;11.344;2022-08-21T06:17:59;36.55;;;8.52;;
25854;SDS011;13680;49.936;11.344;2022-08-21T06:20:25;32.33;;;9.10;;
25854;SDS011;13680;49.936;11.344;2022-08-21T06:22:51;23.67;;;9.48;;
25854;SDS011;13680;49.936;11.344;2022-08-21T06:25:16;17.20;;;10.52;;
25854;SDS011;13680;49.936;11.344;2022-08-21T06:27:42;23.05;;;10.45;;
25854;SDS011;13680;49.936;11.344;2022-08-21T06:30:08;41.35;;;14.77;;
25854;SDS011;13680;49.936;11.344;2022-08-21T06:32:34;35.78;;;15.45;;
25854;SDS011;13680;49.936;11.344;2022-08-21T06:35:00;41.88;;;15.65;;
25854;SDS011;13680;49.936;11.344;2022-08-21T06:37:25;26.05;;;15.27;;
25854;SDS011;13680;49.936;11.344;2022-08-21T06:39:51;18.88;;;13.88;;
25854;SDS011;13680;49.936;11.344;2022-08-21T06:42:16;26.95;;;16.40;;
25854;SDS011;13680;49.936;11.344;2022-08-21T06:44:42;31.40;;;16.77;;
25854;SDS011;13680;49.936;11.344;2022-08-21T06:47:08;27.52;;;16.52;;
25854;SDS011;13680;49.936;11.344;2022-08-21T06:49:34;24.17;;;16.20;;
25854;SDS011;13680;49.936;11.344;2022-08-21T06:52:00;29.48;;;17.13;;
25854;SDS011;13680;49.936;11.344;2022-08-21T06:54:25;24.23;;;16.30;;
25854;SDS011;13680;49.936;11.344;2022-08-21T06:56:51;19.67;;;15.35;;
25854;SDS011;13680;49.936;11.344;2022-08-21T06:59:16;21.63;;;16.05;;
25854;SDS011;13680;49.936;11.344;2022-08-21T07:01:42;22.20;;;16.13;;
25854;SDS011;13680;49.936;11.344;2022-08-21T07:04:07;19.63;;;15.23;;
25854;SDS011;13680;49.936;11.344;2022-08-21T07:06:33;17.98;;;15.77;;
25854;SDS011;13680;49.936;11.344;2022-08-21T07:08:58;19.48;;;15.90;;
25854;SDS011;13680;49.936;11.344;2022-08-21T07:11:24;20.65;;;17.17;;
25854;SDS011;13680;49.936;11.344;2022-08-21T07:13:50;21.42;;;16.70;;
25854;SDS011;13680;49.936;11.344;2022-08-21T07:16:18;20.52;;;16.92;;
25854;SDS011;13680;49.936;11.344;2022-08-21T07:18:44;26.60;;;17.80;;
25854;SDS011;13680;49.936;11.344;2022-08-21T07:21:10;21.73;;;18.08;;
25854;SDS011;13680;49.936;11.344;2022-08-21T07:23:42;23.80;;;17.65;;
25854;SDS011;13680;49.936;11.344;2022-08-21T07:26:11;23.67;;;18.10;;
25854;SDS011;13680;49.936;11.344;2022-08-21T07:28:37;24.08;;;18.77;;
25854;SDS011;13680;49.936;11.344;2022-08-21T07:31:03;29.98;;;21.10;;
25854;SDS011;13680;49.936;11.344;2022-08-21T07:33:30;28.00;;;21.23;;
25854;SDS011;13680;49.936;11.344;2022-08-21T07:35:57;28.73;;;21.00;;
25854;SDS011;13680;49.936;11.344;2022-08-21T07:38:23;26.42;;;21.23;;
25854;SDS011;13680;49.936;11.344;2022-08-21T07:40:49;28.08;;;21.02;;
25854;SDS011;13680;49.936;11.344;2022-08-21T07:43:17;31.08;;;21.70;;
25854;SDS011;13680;49.936;11.344;2022-08-21T07:45:43;26.90;;;20.50;;
25854;SDS011;13680;49.936;11.344;2022-08-21T07:48:09;29.63;;;21.38;;
25854;SDS011;13680;49.936;11.344;2022-08-21T07:50:34;26.67;;;20.88;;
25854;SDS011;13680;49.936;11.344;2022-08-21T07:53:00;26.55;;;20.60;;
25854;SDS011;13680;49.936;11.344;2022-08-21T07:55:26;28.42;;;20.63;;
25854;SDS011;13680;49.936;11.344;2022-08-21T07:57:51;25.83;;;19.77;;
25854;SDS011;13680;49.936;11.344;2022-08-21T08:00:18;24.85;;;19.95;;
25854;SDS011;13680;49.936;11.344;2022-08-21T08:02:48;23.70;;;19.27;;
25854;SDS011;13680;49.936;11.344;2022-08-21T08:05:16;29.33;;;20.05;;
25854;SDS011;13680;49.936;11.344;2022-08-21T08:07:43;25.60;;;19.38;;
25854;SDS011;13680;49.936;11.344;2022-08-21T08:10:09;24.60;;;19.70;;
25854;SDS011;13680;49.936;11.344;2022-08-21T08:12:37;25.35;;;18.60;;
25854;SDS011;13680;49.936;11.344;2022-08-21T08:15:04;22.50;;;18.30;;
25854;SDS011;13680;49.936;11.344;2022-08-21T08:17:32;24.38;;;18.45;;
25854;SDS011;13680;49.936;11.344;2022-08-21T08:19:57;24.73;;;17.13;;
25854;SDS011;13680;49.936;11.344;2022-08-21T08:22:24;22.98;;;18.17;;
25854;SDS011;13680;49.936;11.344;2022-08-21T08:24:50;22.42;;;19.17;;
25854;SDS011;13680;49.936;11.344;2022-08-21T08:27:16;20.42;;;16.52;;
25854;SDS011;13680;49.936;11.344;2022-08-21T08:29:42;20.52;;;16.80;;
25854;SDS011;13680;49.936;11.344;2022-08-21T08:32:09;22.35;;;18.15;;
25854;SDS011;13680;49.936;11.344;2022-08-21T08:34:35;18.67;;;14.85;;
25854;SDS011;13680;49.936;11.344;2022-08-21T08:37:01;20.27;;;15.77;;
25854;SDS011;13680;49.936;11.344;2022-08-21T08:39:28;22.92;;;16.45;;
25854;SDS011;13680;49.936;11.344;2022-08-21T08:42:13;17.80;;;15.73;;
25854;SDS011;13680;49.936;11.344;2022-08-21T08:44:44;21.02;;;16.75;;
25854;SDS011;13680;49.936;11.344;2022-08-21T08:47:11;24.08;;;15.80;;
25854;SDS011;13680;49.936;11.344;2022-08-21T08:50:03;21.33;;;15.80;;
25854;SDS011;13680;49.936;11.344;2022-08-21T08:52:41;20.77;;;15.52;;
25854;SDS011;13680;49.936;11.344;2022-08-21T08:55:12;17.83;;;14.75;;
25854;SDS011;13680;49.936;11.344;2022-08-21T08:58:18;17.90;;;14.50;;
25854;SDS011;13680;49.936;11.344;2022-08-21T09:00:49;17.38;;;14.60;;
25854;SDS011;13680;49.936;11.344;2022-08-21T09:03:16;19.25;;;13.23;;
25854;SDS011;13680;49.936;11.344;2022-08-21T09:19:22;19.55;;;12.57;;
25854;SDS011;13680;49.936;11.344;2022-08-21T09:24:39;15.00;;;12.63;;
25854;SDS011;13680;49.936;11.344;2022-08-21T09:27:12;15.65;;;12.65;;
25854;SDS011;13680;49.936;11.344;2022-08-21T09:29:41;16.77;;;12.52;;
25854;SDS011;13680;49.936;11.344;2022-08-21T09:32:11;16.02;;;11.82;;
25854;SDS011;13680;49.936;11.344;2022-08-21T09:34:54;17.45;;;12.85;;
25854;SDS011;13680;49.936;11.344;2022-08-21T09:37:47;14.98;;;11.07;;
25854;SDS011;13680;49.936;11.344;2022-08-21T09:40:27;13.35;;;10.65;;
25854;SDS011;13680;49.936;11.344;2022-08-21T09:45:36;13.18;;;10.48;;
25854;SDS011;13680;49.936;11.344;2022-08-21T09:48:12;15.18;;;11.45;;
25854;SDS011;13680;49.936;11.344;2022-08-21T09:53:03;15.70;;;11.05;;
25854;SDS011;13680;49.936;11.344;2022-08-21T09:58:20;12.55;;;9.80;;
25854;SDS011;13680;49.936;11.344;2022-08-21T10:00:57;10.45;;;9.35;;
25854;SDS011;13680;49.936;11.344;2022-08-21T10:03:25;13.68;;;9.82;;
25854;SDS011;13680;49.936;11.344;2022-08-21T10:05:58;13.95;;;9.90;;
25854;SDS011;13680;49.936;11.344;2022-08-21T10:08:34;12.23;;;8.98;;
25854;SDS011;13680;49.936;11.344;2022-08-21T10:11:05;11.43;;;9.65;;
25854;SDS011;13680;49.936;11.344;2022-08-21T10:13:36;8.75;;;7.70;;
25854;SDS011;13680;49.936;11.344;2022-08-21T10:16:11;8.75;;;7.78;;
25854;SDS011;13680;49.936;11.344;2022-08-21T10:18:42;8.68;;;7.75;;
25854;SDS011;13680;49.936;11.344;2022-08-21T10:21:21;9.77;;;8.05;;
25854;SDS011;13680;49.936;11.344;2022-08-21T10:23:55;8.60;;;7.13;;
25854;SDS011;13680;49.936;11.344;2022-08-21T10:26:33;8.77;;;7.47;;
25854;SDS011;13680;49.936;11.344;2022-08-21T10:32:39;10.48;;;6.90;;
25854;SDS011;13680;49.936;11.344;2022-08-21T10:35:18;7.60;;;5.47;;
25854;SDS011;13680;49.936;11.344;2022-08-21T10:38:10;7.40;;;6.13;;
25854;SDS011;13680;49.936;11.344;2022-08-21T10:46:15;7.68;;;5.88;;
25854;SDS011;13680;49.936;11.344;2022-08-21T10:51:34;8.95;;;5.80;;
25854;SDS011;13680;49.936;11.344;2022-08-21T10:56:44;10.02;;;8.88;;
25854;SDS011;13680;49.936;11.344;2022-08-21T10:59:26;8.43;;;7.35;;
25854;SDS011;13680;49.936;11.344;2022-08-21T11:01:56;7.75;;;6.38;;
25854;SDS011;13680;49.936;11.344;2022-08-21T11:09:56;7.70;;;6.00;;
25854;SDS011;13680;49.936;11.344;2022-08-21T11:12:39;6.15;;;4.90;;
25854;SDS011;13680;49.936;11.344;2022-08-21T11:15:52;5.60;;;5.00;;
25854;SDS011;13680;49.936;11.344;2022-08-21T11:20:51;5.03;;;4.53;;
25854;SDS011;13680;49.936;11.344;2022-08-21T11:23:25;6.60;;;5.63;;
25854;SDS011;13680;49.936;11.344;2022-08-21T11:26:02;6.53;;;4.77;;
25854;SDS011;13680;49.936;11.344;2022-08-21T11:28:35;7.95;;;5.22;;
25854;SDS011;13680;49.936;11.344;2022-08-21T11:31:15;5.93;;;5.30;;
25854;SDS011;13680;49.936;11.344;2022-08-21T11:39:24;7.63;;;5.00;;
25854;SDS011;13680;49.936;11.344;2022-08-21T11:50:48;5.95;;;5.03;;
25854;SDS011;13680;49.936;11.344;2022-08-21T11:56:02;11.40;;;4.90;;
25854;SDS011;13680;49.936;11.344;2022-08-21T11:58:41;5.45;;;4.90;;
25854;SDS011;13680;49.936;11.344;2022-08-21T12:01:17;4.68;;;4.25;;
25854;SDS011;13680;49.936;11.344;2022-08-21T12:03:55;5.68;;;4.38;;
25854;SDS011;13680;49.936;11.344;2022-08-21T12:06:28;4.97;;;4.47;;
25854;SDS011;13680;49.936;11.344;2022-08-21T12:08:58;5.13;;;4.63;;
25854;SDS011;13680;49.936;11.344;2022-08-21T12:11:26;5.63;;;4.82;;
25854;SDS011;13680;49.936;11.344;2022-08-21T12:13:54;4.40;;;4.00;;
25854;SDS011;13680;49.936;11.344;2022-08-21T12:16:39;5.25;;;4.10;;
25854;SDS011;13680;49.936;11.344;2022-08-21T12:19:28;4.88;;;4.38;;
25854;SDS011;13680;49.936;11.344;2022-08-21T12:27:26;4.78;;;4.38;;
25854;SDS011;13680;49.936;11.344;2022-08-21T12:30:00;4.28;;;3.88;;
25854;SDS011;13680;49.936;11.344;2022-08-21T12:32:29;8.40;;;3.92;;
25854;SDS011;13680;49.936;11.344;2022-08-21T12:35:27;4.10;;;3.67;;
25854;SDS011;13680;49.936;11.344;2022-08-21T12:38:09;4.80;;;3.60;;
25854;SDS011;13680;49.936;11.344;2022-08-21T12:40:52;5.32;;;4.00;;
25854;SDS011;13680;49.936;11.344;2022-08-21T12:43:33;5.53;;;3.53;;
25854;SDS011;13680;49.936;11.344;2022-08-21T12:46:00;4.07;;;3.58;;
25854;SDS011;13680;49.936;11.344;2022-08-21T12:48:51;7.60;;;4.20;;
25854;SDS011;13680;49.936;11.344;2022-08-21T12:51:33;4.93;;;3.70;;
25854;SDS011;13680;49.936;11.344;2022-08-21T12:54:21;4.07;;;3.67;;
25854;SDS011;13680;49.936;11.344;2022-08-21T12:56:55;4.90;;;3.88;;
25854;SDS011;13680;49.936;11.344;2022-08-21T12:59:25;4.20;;;3.65;;
25854;SDS011;13680;49.936;11.344;2022-08-21T13:01:51;3.92;;;3.53;;
25854;SDS011;13680;49.936;11.344;2022-08-21T13:04:26;3.60;;;3.30;;
25854;SDS011;13680;49.936;11.344;2022-08-21T13:07:01;4.32;;;3.47;;
25854;SDS011;13680;49.936;11.344;2022-08-21T13:09:32;3.67;;;3.30;;
25854;SDS011;13680;49.936;11.344;2022-08-21T13:11:57;4.40;;;3.08;;
25854;SDS011;13680;49.936;11.344;2022-08-21T13:16:55;6.13;;;2.97;;
25854;SDS011;13680;49.936;11.344;2022-08-21T13:19:21;5.05;;;2.80;;
25854;SDS011;13680;49.936;11.344;2022-08-21T13:21:48;4.40;;;2.50;;
25854;SDS011;13680;49.936;11.344;2022-08-21T13:26:53;3.40;;;3.10;;
25854;SDS011;13680;49.936;11.344;2022-08-21T13:29:20;3.10;;;2.80;;
25854;SDS011;13680;49.936;11.344;2022-08-21T13:31:52;2.63;;;2.42;;
25854;SDS011;13680;49.936;11.344;2022-08-21T13:34:23;2.92;;;2.72;;
25854;SDS011;13680;49.936;11.344;2022-08-21T13:36:54;2.58;;;2.38;;
25854;SDS011;13680;49.936;11.344;2022-08-21T13:39:23;4.07;;;2.40;;
25854;SDS011;13680;49.936;11.344;2022-08-21T13:41:50;4.55;;;2.75;;
25854;SDS011;13680;49.936;11.344;2022-08-21T13:44:21;3.30;;;2.35;;
25854;SDS011;13680;49.936;11.344;2022-08-21T13:46:51;4.53;;;2.50;;
25854;SDS011;13680;49.936;11.344;2022-08-21T13:49:20;3.20;;;2.50;;
25854;SDS011;13680;49.936;11.344;2022-08-21T13:51:48;4.90;;;2.92;;
25854;SDS011;13680;49.936;11.344;2022-08-21T13:54:27;2.78;;;2.50;;
25854;SDS011;13680;49.936;11.344;2022-08-21T13:56:58;2.85;;;2.33;;
25854;SDS011;13680;49.936;11.344;2022-08-21T13:59:28;4.10;;;2.47;;
25854;SDS011;13680;49.936;11.344;2022-08-21T14:02:16;2.95;;;2.50;;
25854;SDS011;13680;49.936;11.344;2022-08-21T14:04:50;2.88;;;2.45;;
25854;SDS011;13680;49.936;11.344;2022-08-21T14:07:23;2.85;;;2.58;;
25854;SDS011;13680;49.936;11.344;2022-08-21T14:09:59;3.42;;;2.47;;
25854;SDS011;13680;49.936;11.344;2022-08-21T14:12:33;2.50;;;2.30;;
25854;SDS011;13680;49.936;11.344;2022-08-21T14:15:14;4.15;;;1.92;;
25854;SDS011;13680;49.936;11.344;2022-08-21T14:17:42;2.88;;;2.30;;
25854;SDS011;13680;49.936;11.344;2022-08-21T14:20:12;2.58;;;2.20;;
25854;SDS011;13680;49.936;11.344;2022-08-21T14:22:50;3.17;;;2.30;;
25854;SDS011;13680;49.936;11.344;2022-08-21T14:27:48;4.75;;;2.72;;
25854;SDS011;13680;49.936;11.344;2022-08-21T14:30:18;2.95;;;2.30;;
25854;SDS011;13680;49.936;11.344;2022-08-21T14:32:46;3.05;;;2.20;;
25854;SDS011;13680;49.936;11.344;2022-08-21T14:35:12;2.95;;;2.05;;
25854;SDS011;13680;49.936;11.344;2022-08-21T14:37:42;2.50;;;2.17;;
25854;SDS011;13680;49.936;11.344;2022-08-21T14:40:09;3.20;;;2.42;;
25854;SDS011;13680;49.936;11.344;2022-08-21T14:42:35;3.53;;;2.40;;
25854;SDS011;13680;49.936;11.344;2022-08-21T14:45:02;2.58;;;2.22;;
25854;SDS011;13680;49.936;11.344;2022-08-21T14:47:32;3.30;;;2.40;;
25854;SDS011;13680;49.936;11.344;2022-08-21T14:49:57;2.90;;;2.30;;
25854;SDS011;13680;49.936;11.344;2022-08-21T14:52:23;2.50;;;2.13;;
25854;SDS011;13680;49.936;11.344;2022-08-21T14:54:49;2.47;;;2.13;;
25854;SDS011;13680;49.936;11.344;2022-08-21T14:57:14;2.10;;;1.90;;
25854;SDS011;13680;49.936;11.344;2022-08-21T14:59:39;3.00;;;2.20;;
25854;SDS011;13680;49.936;11.344;2022-08-21T15:02:06;2.38;;;2.17;;
25854;SDS011;13680;49.936;11.344;2022-08-21T15:04:33;3.40;;;2.65;;
25854;SDS011;13680;49.936;11.344;2022-08-21T15:06:59;3.53;;;2.25;;
25854;SDS011;13680;49.936;11.344;2022-08-21T15:09:25;2.75;;;2.28;;
25854;SDS011;13680;49.936;11.344;2022-08-21T15:11:52;3.47;;;2.15;;
25854;SDS011;13680;49.936;11.344;2022-08-21T15:14:21;2.97;;;2.13;;
25854;SDS011;13680;49.936;11.344;2022-08-21T15:16:50;3.13;;;2.30;;
25854;SDS011;13680;49.936;11.344;2022-08-21T15:19:15;2.65;;;2.17;;
25854;SDS011;13680;49.936;11.344;2022-08-21T15:21:41;2.97;;;2.25;;
25854;SDS011;13680;49.936;11.344;2022-08-21T15:24:06;3.35;;;2.22;;
25854;SDS011;13680;49.936;11.344;2022-08-21T15:26:32;4.38;;;2.28;;
25854;SDS011;13680;49.936;11.344;2022-08-21T15:28:59;3.15;;;2.10;;
25854;SDS011;13680;49.936;11.344;2022-08-21T15:31:24;4.45;;;2.03;;
25854;SDS011;13680;49.936;11.344;2022-08-21T15:33:50;2.95;;;2.35;;
25854;SDS011;13680;49.936;11.344;2022-08-21T15:36:16;3.03;;;2.00;;
25854;SDS011;13680;49.936;11.344;2022-08-21T15:38:44;2.47;;;1.95;;
25854;SDS011;13680;49.936;11.344;2022-08-21T15:41:10;4.68;;;2.03;;
25854;SDS011;13680;49.936;11.344;2022-08-21T15:43:45;2.78;;;1.95;;
25854;SDS011;13680;49.936;11.344;2022-08-21T15:46:13;4.20;;;2.00;;
25854;SDS011;13680;49.936;11.344;2022-08-21T15:48:42;2.60;;;1.90;;
25854;SDS011;13680;49.936;11.344;2022-08-21T15:51:09;2.78;;;1.90;;